AEG weather

Double Eagle II Airport
Albuquerque, New Mexico, United States

Public forecast

Using degrees Fahrenheit for public forecast. Weather courtesy of forecast.io.

METAR (pilot weather report)

Retrieved 2019/07/24 00:48 UTC (36 minutes ago):

KAEG 240048Z 15009KT 10SM SCT070 SCT110 28/11 A3027 RMK TCU DSNT N-E SHRA DSNT E

TAF (pilot weather forecast)

Forecast is more than 12 hours old.

Retrieved 2019/07/23 00:42 UTC (1 day ago):

TAF KAEG 232339Z 2400/2424 15010KT P6SM SCT070 BKN110 FM240100 15011KT P6SM VCSH BKN070 FM240400 17006KT P6SM BKN080 FM241700 18006KT P6SM SCT050